createdAt,value
2018-11-26T00:04:15.603Z,45.50
2018-11-26T00:09:18.771Z,42.63
2018-11-26T00:14:21.922Z,37.73
2018-11-26T00:19:25.080Z,39.60
2018-11-26T00:24:28.210Z,38.40
2018-11-26T00:29:31.376Z,36.77
2018-11-26T00:34:34.555Z,40.90
2018-11-26T00:39:37.806Z,37.40
2018-11-26T00:44:40.979Z,35.00
2018-11-26T00:49:44.219Z,34.03
2018-11-26T00:54:47.423Z,36.80
2018-11-26T00:59:50.606Z,34.10
2018-11-26T01:04:53.742Z,38.67
2018-11-26T01:09:56.882Z,36.37
2018-11-26T01:15:00.012Z,35.17
2018-11-26T01:20:03.130Z,33.03
2018-11-26T01:25:06.278Z,31.87
2018-11-26T01:30:09.723Z,32.60
2018-11-26T01:35:12.902Z,33.80
2018-11-26T01:40:29.182Z,33.37
2018-11-26T01:45:32.310Z,33.13
2018-11-26T01:50:35.530Z,28.77
2018-11-26T01:55:38.647Z,31.27
2018-11-26T02:00:41.795Z,29.97
2018-11-26T02:05:44.910Z,31.33
2018-11-26T02:10:48.038Z,30.37
2018-11-26T02:15:51.158Z,30.60
2018-11-26T02:20:54.293Z,32.83
2018-11-26T02:25:57.430Z,32.77
2018-11-26T02:31:00.550Z,30.03
2018-11-26T02:36:03.714Z,31.77
2018-11-26T02:41:06.910Z,29.57
2018-11-26T02:46:10.031Z,28.33
2018-11-26T02:51:13.223Z,29.17
2018-11-26T02:56:16.360Z,30.93
2018-11-26T03:01:19.486Z,34.33
2018-11-26T03:06:22.610Z,30.63
2018-11-26T03:11:26.150Z,36.97
2018-11-26T03:16:29.282Z,32.70
2018-11-26T03:21:32.418Z,33.17
2018-11-26T03:26:35.538Z,33.93
2018-11-26T03:31:38.673Z,30.83
2018-11-26T03:36:41.787Z,33.07
2018-11-26T03:41:44.906Z,30.07
2018-11-26T03:46:48.018Z,34.10
2018-11-26T03:51:51.159Z,34.27
2018-11-26T03:56:54.275Z,32.30
2018-11-26T04:01:57.443Z,30.23
2018-11-26T04:07:00.566Z,35.37
2018-11-26T04:12:03.686Z,31.20
2018-11-26T04:17:06.822Z,28.50
2018-11-26T04:22:09.954Z,32.97
2018-11-26T04:27:13.088Z,31.23
2018-11-26T04:32:16.307Z,31.23
2018-11-26T04:37:19.428Z,34.27
2018-11-26T04:42:22.610Z,34.17
2018-11-26T04:47:25.818Z,35.60
2018-11-26T04:52:29.083Z,33.83
2018-11-26T04:57:32.210Z,34.93
2018-11-26T05:02:35.330Z,33.40
2018-11-26T05:07:38.560Z,30.50
2018-11-26T05:12:41.791Z,32.83
2018-11-26T05:17:44.932Z,34.60
2018-11-26T05:22:48.096Z,32.20
2018-11-26T05:27:51.658Z,30.57
2018-11-26T05:32:54.777Z,31.17
2018-11-26T05:37:57.913Z,32.80
2018-11-26T05:43:01.238Z,30.07
2018-11-26T05:48:04.480Z,31.20
2018-11-26T05:53:07.617Z,32.47
2018-11-26T05:58:10.742Z,32.57
2018-11-26T06:03:13.881Z,33.10
2018-11-26T06:08:17.014Z,32.40
2018-11-26T06:13:20.138Z,27.07
2018-11-26T06:18:23.266Z,29.40
2018-11-26T06:23:26.413Z,30.20
2018-11-26T06:28:29.575Z,26.90
2018-11-26T06:33:34.798Z,29.03
2018-11-26T06:38:37.916Z,35.17
2018-11-26T06:43:41.094Z,28.27
2018-11-26T06:48:45.354Z,29.10
2018-11-26T06:53:47.450Z,29.20
2018-11-26T06:58:50.571Z,28.67
2018-11-26T07:03:53.694Z,31.60
2018-11-26T07:08:56.875Z,29.77
2018-11-26T07:14:00.083Z,30.83
2018-11-26T07:19:03.251Z,29.30
2018-11-26T07:24:06.390Z,30.30
2018-11-26T07:29:09.614Z,25.30
2018-11-26T07:34:12.791Z,27.73
2018-11-26T07:39:15.918Z,29.63
2018-11-26T07:44:19.045Z,28.63
2018-11-26T07:49:23.369Z,30.47
2018-11-26T07:54:25.358Z,28.00
2018-11-26T07:59:28.511Z,30.90
2018-11-26T08:04:31.659Z,27.07
2018-11-26T08:09:34.773Z,25.63
2018-11-26T08:14:37.915Z,30.10
2018-11-26T08:19:41.142Z,31.33
2018-11-26T08:24:44.265Z,25.20
2018-11-26T08:29:47.406Z,26.63
2018-11-26T08:34:50.562Z,26.60
2018-11-26T08:39:56.163Z,25.23
2018-11-26T08:45:04.682Z,28.63
2018-11-26T08:50:09.189Z,27.97
2018-11-26T08:55:12.418Z,27.33
2018-11-26T09:00:15.592Z,28.80
2018-11-26T09:05:24.243Z,28.33
2018-11-26T09:10:25.625Z,31.43
2018-11-26T09:15:28.750Z,30.87
2018-11-26T09:20:31.902Z,28.10
2018-11-26T09:25:35.857Z,33.40
2018-11-26T09:30:38.992Z,31.17
2018-11-26T09:35:42.122Z,31.90
2018-11-26T09:40:45.253Z,31.97
2018-11-26T09:45:48.377Z,31.60
2018-11-26T09:50:51.514Z,29.03
2018-11-26T09:55:54.650Z,28.03
2018-11-26T10:00:57.774Z,28.10
2018-11-26T10:06:00.956Z,32.33
2018-11-26T10:11:04.070Z,30.57
2018-11-26T10:16:07.305Z,35.63
2018-11-26T10:21:10.438Z,31.13
2018-11-26T10:26:13.577Z,36.67
2018-11-26T10:31:16.697Z,35.20
2018-11-26T10:36:19.826Z,35.53
2018-11-26T10:41:22.969Z,35.60
2018-11-26T10:46:26.101Z,32.20
2018-11-26T10:51:29.236Z,36.20
2018-11-26T10:56:32.363Z,34.73
2018-11-26T11:01:43.924Z,32.97
2018-11-26T11:06:47.074Z,36.73
2018-11-26T11:11:50.210Z,35.83
2018-11-26T11:16:53.407Z,39.47
2018-11-26T11:21:56.533Z,38.83
2018-11-26T11:26:59.670Z,39.27
2018-11-26T11:32:02.804Z,37.10
2018-11-26T11:37:06.179Z,42.20
2018-11-26T11:42:09.319Z,38.60
2018-11-26T11:47:12.547Z,36.30
2018-11-26T11:52:15.693Z,36.77
2018-11-26T11:57:18.835Z,36.23
2018-11-26T12:02:22.047Z,39.13
2018-11-26T12:07:25.193Z,39.77
2018-11-26T12:12:28.320Z,35.23
2018-11-26T12:17:31.455Z,34.70
2018-11-26T12:22:34.633Z,39.10
2018-11-26T12:27:37.866Z,34.87
2018-11-26T12:32:40.983Z,38.93
2018-11-26T12:37:44.199Z,34.47
2018-11-26T12:42:47.596Z,36.13
2018-11-26T12:47:50.819Z,36.93
2018-11-26T12:52:54.037Z,37.37
2018-11-26T12:57:57.884Z,41.20
2018-11-26T13:03:05.104Z,38.87
2018-11-26T13:08:08.671Z,37.63
2018-11-26T13:13:11.887Z,34.23
2018-11-26T13:18:15.040Z,39.80
2018-11-26T13:23:18.163Z,37.50
2018-11-26T13:28:21.311Z,36.30
2018-11-26T13:33:24.440Z,34.73
2018-11-26T13:38:27.565Z,35.30
2018-11-26T13:43:30.692Z,34.80
2018-11-26T13:48:33.844Z,33.53
2018-11-26T13:53:36.976Z,36.40
2018-11-26T13:58:40.183Z,30.90
2018-11-26T14:03:43.339Z,33.63
2018-11-26T14:08:46.515Z,34.33
2018-11-26T14:13:50.876Z,36.43
2018-11-26T14:18:54.006Z,38.03
2018-11-26T14:23:57.136Z,38.87
2018-11-26T14:29:00.384Z,40.57
2018-11-26T14:34:03.526Z,39.10
2018-11-26T14:39:08.079Z,43.00
2018-11-26T14:46:25.851Z,16.67
2018-11-26T14:51:29.064Z,16.23
2018-11-26T14:56:32.192Z,19.93
2018-11-26T15:01:35.332Z,16.37
2018-11-26T15:06:38.487Z,13.97
2018-11-26T15:11:41.604Z,13.27
2018-11-26T15:16:44.719Z,14.63
2018-11-26T15:21:47.843Z,12.17
2018-11-26T15:26:53.244Z,15.00
2018-11-26T15:31:54.247Z,11.37
2018-11-26T15:36:57.440Z,36.00
2018-11-26T15:42:00.655Z,25.60
2018-11-26T15:47:03.775Z,18.23
2018-11-26T15:52:07.016Z,18.73
2018-11-26T15:57:11.899Z,30.17
2018-11-26T16:02:15.168Z,21.20
2018-11-26T16:07:18.489Z,19.87
2018-11-26T16:12:21.680Z,17.63
2018-11-26T16:17:24.899Z,14.47
2018-11-26T16:22:28.052Z,222.43
2018-11-26T16:27:31.192Z,188.23
2018-11-26T16:32:34.311Z,230.80
2018-11-26T16:37:37.440Z,369.97
2018-11-26T16:42:40.567Z,320.47
2018-11-26T16:47:44.403Z,349.90
2018-11-26T16:52:47.719Z,226.23
2018-11-26T16:57:50.867Z,390.43
2018-11-26T17:02:58.304Z,390.83
2018-11-26T17:08:01.428Z,432.93
2018-11-26T17:13:04.940Z,465.47
2018-11-26T17:18:08.268Z,507.03
2018-11-26T17:23:11.448Z,393.97
2018-11-26T17:28:14.575Z,510.97
2018-11-26T17:33:17.797Z,472.73
2018-11-26T17:38:20.892Z,398.63
2018-11-26T17:43:24.032Z,344.07
2018-11-26T17:48:27.285Z,313.70
2018-11-26T18:01:38.302Z,285.03
2018-11-26T18:06:41.544Z,244.73
2018-11-26T18:11:44.723Z,257.07
2018-11-26T18:16:47.967Z,247.00
2018-11-26T18:21:51.159Z,232.70
2018-11-26T18:26:54.305Z,230.03
2018-11-26T18:31:57.452Z,221.93
2018-11-26T18:37:00.575Z,210.83
2018-11-26T18:42:03.695Z,205.10
2018-11-26T18:47:06.828Z,202.63
2018-11-26T18:52:09.945Z,206.03
2018-11-26T18:57:13.076Z,201.53
2018-11-26T19:02:16.200Z,196.17
2018-11-26T19:07:19.422Z,189.57
2018-11-26T19:12:22.668Z,186.07
2018-11-26T19:17:25.825Z,205.27
2018-11-26T19:22:29.041Z,181.07
2018-11-26T19:27:32.204Z,190.33
2018-11-26T19:32:35.354Z,171.17
2018-11-26T19:37:38.560Z,170.43
2018-11-26T19:42:42.687Z,174.00
2018-11-26T19:47:46.052Z,162.77
2018-11-26T19:52:51.243Z,164.77
2018-11-26T19:57:55.987Z,159.00
2018-11-26T20:03:37.779Z,146.13
2018-11-26T20:08:41.627Z,149.90
2018-11-26T20:13:44.783Z,143.60
2018-11-26T20:18:47.912Z,137.07
2018-11-26T20:23:51.066Z,145.07
2018-11-26T20:28:56.935Z,128.43
2018-11-26T20:33:57.420Z,130.73
2018-11-26T20:39:00.554Z,132.03
2018-11-26T20:44:03.672Z,126.27
2018-11-26T20:49:07.919Z,120.63
2018-11-26T20:54:11.148Z,116.20
2018-11-26T20:59:14.284Z,122.07
2018-11-26T21:04:17.420Z,116.07
2018-11-26T21:09:20.593Z,116.70
2018-11-26T21:14:23.716Z,108.33
2018-11-26T21:19:26.840Z,103.77
2018-11-26T21:24:29.967Z,104.83
2018-11-26T21:29:33.104Z,102.40
2018-11-26T21:34:36.328Z,99.73
2018-11-26T21:39:39.528Z,99.33
2018-11-26T21:44:42.659Z,95.97
2018-11-26T21:49:45.782Z,98.20
2018-11-26T21:54:48.905Z,89.50
2018-11-26T21:59:52.024Z,84.83
2018-11-26T22:04:55.181Z,88.50
2018-11-26T22:09:58.308Z,81.37
2018-11-26T22:15:01.472Z,82.77
2018-11-26T22:20:07.131Z,79.50
2018-11-26T22:25:11.168Z,79.23
2018-11-26T22:30:21.437Z,72.53
2018-11-26T22:35:24.583Z,74.83
2018-11-26T22:40:27.771Z,76.00
2018-11-26T22:45:32.895Z,72.40
2018-11-26T22:50:37.148Z,67.10
2018-11-26T22:55:40.415Z,70.23
2018-11-26T23:00:48.987Z,63.93
2018-11-26T23:05:52.108Z,65.23
2018-11-26T23:10:55.232Z,62.83
2018-11-26T23:15:58.444Z,65.20
2018-11-26T23:21:01.602Z,61.33
2018-11-26T23:26:04.722Z,59.30
2018-11-26T23:31:07.835Z,57.03
2018-11-26T23:36:10.976Z,59.90
2018-11-26T23:41:14.095Z,59.23
2018-11-26T23:46:17.285Z,53.50
2018-11-26T23:51:20.401Z,54.33
2018-11-26T23:56:23.515Z,55.40
